sensor_id;sensor_type;location;lat;lon;timestamp;P1;durP1;ratioP1;P2;durP2;ratioP2
13386;SDS011;6763;48.524;9.044;2023-04-16T00:01:30;1.67;;;1.10;;
13386;SDS011;6763;48.524;9.044;2023-04-16T00:03:55;1.17;;;0.93;;
13386;SDS011;6763;48.524;9.044;2023-04-16T00:06:21;1.00;;;1.00;;
13386;SDS011;6763;48.524;9.044;2023-04-16T00:08:47;1.38;;;1.10;;
13386;SDS011;6763;48.524;9.044;2023-04-16T00:11:12;1.15;;;1.05;;
13386;SDS011;6763;48.524;9.044;2023-04-16T00:13:37;1.75;;;0.93;;
13386;SDS011;6763;48.524;9.044;2023-04-16T00:16:03;1.05;;;0.95;;
13386;SDS011;6763;48.524;9.044;2023-04-16T00:18:28;1.20;;;1.10;;
13386;SDS011;6763;48.524;9.044;2023-04-16T00:20:54;0.93;;;0.90;;
13386;SDS011;6763;48.524;9.044;2023-04-16T00:23:19;0.90;;;0.90;;
13386;SDS011;6763;48.524;9.044;2023-04-16T00:25:45;1.02;;;0.90;;
13386;SDS011;6763;48.524;9.044;2023-04-16T00:28:10;1.10;;;0.95;;
13386;SDS011;6763;48.524;9.044;2023-04-16T00:30:36;1.00;;;0.90;;
13386;SDS011;6763;48.524;9.044;2023-04-16T00:33:01;1.02;;;0.93;;
13386;SDS011;6763;48.524;9.044;2023-04-16T00:35:28;0.80;;;0.80;;
13386;SDS011;6763;48.524;9.044;2023-04-16T00:37:54;3.28;;;1.10;;
13386;SDS011;6763;48.524;9.044;2023-04-16T00:40:19;1.20;;;1.10;;
13386;SDS011;6763;48.524;9.044;2023-04-16T00:42:45;0.68;;;0.68;;
13386;SDS011;6763;48.524;9.044;2023-04-16T00:45:10;1.05;;;0.95;;
13386;SDS011;6763;48.524;9.044;2023-04-16T00:47:36;1.20;;;1.05;;
13386;SDS011;6763;48.524;9.044;2023-04-16T00:50:02;1.25;;;1.15;;
13386;SDS011;6763;48.524;9.044;2023-04-16T00:52:28;2.92;;;1.08;;
13386;SDS011;6763;48.524;9.044;2023-04-16T00:54:55;1.10;;;1.00;;
13386;SDS011;6763;48.524;9.044;2023-04-16T00:57:21;1.58;;;1.17;;
13386;SDS011;6763;48.524;9.044;2023-04-16T00:59:47;1.45;;;1.00;;
13386;SDS011;6763;48.524;9.044;2023-04-16T01:02:13;1.38;;;1.27;;
13386;SDS011;6763;48.524;9.044;2023-04-16T01:04:39;0.98;;;0.98;;
13386;SDS011;6763;48.524;9.044;2023-04-16T01:07:04;0.98;;;0.95;;
13386;SDS011;6763;48.524;9.044;2023-04-16T01:09:29;2.67;;;1.13;;
13386;SDS011;6763;48.524;9.044;2023-04-16T01:11:55;1.20;;;1.05;;
13386;SDS011;6763;48.524;9.044;2023-04-16T01:14:20;1.58;;;1.17;;
13386;SDS011;6763;48.524;9.044;2023-04-16T01:16:45;2.08;;;1.38;;
13386;SDS011;6763;48.524;9.044;2023-04-16T01:19:11;1.13;;;1.02;;
13386;SDS011;6763;48.524;9.044;2023-04-16T01:21:36;1.45;;;1.05;;
13386;SDS011;6763;48.524;9.044;2023-04-16T01:24:02;0.73;;;0.73;;
13386;SDS011;6763;48.524;9.044;2023-04-16T01:26:28;1.95;;;1.50;;
13386;SDS011;6763;48.524;9.044;2023-04-16T01:28:54;1.20;;;1.10;;
13386;SDS011;6763;48.524;9.044;2023-04-16T01:31:19;1.83;;;1.17;;
13386;SDS011;6763;48.524;9.044;2023-04-16T01:33:44;1.48;;;1.30;;
13386;SDS011;6763;48.524;9.044;2023-04-16T01:36:10;1.42;;;1.20;;
13386;SDS011;6763;48.524;9.044;2023-04-16T01:38:35;1.90;;;1.60;;
13386;SDS011;6763;48.524;9.044;2023-04-16T01:41:00;2.83;;;1.77;;
13386;SDS011;6763;48.524;9.044;2023-04-16T01:43:26;2.38;;;1.27;;
13386;SDS011;6763;48.524;9.044;2023-04-16T01:45:52;2.20;;;1.75;;
13386;SDS011;6763;48.524;9.044;2023-04-16T01:48:23;2.13;;;1.40;;
13386;SDS011;6763;48.524;9.044;2023-04-16T01:50:48;2.38;;;1.52;;
13386;SDS011;6763;48.524;9.044;2023-04-16T01:53:14;6.60;;;1.60;;
13386;SDS011;6763;48.524;9.044;2023-04-16T01:55:39;1.75;;;1.65;;
13386;SDS011;6763;48.524;9.044;2023-04-16T01:58:05;1.52;;;1.38;;
13386;SDS011;6763;48.524;9.044;2023-04-16T02:00:32;1.67;;;1.27;;
13386;SDS011;6763;48.524;9.044;2023-04-16T02:02:57;1.30;;;1.13;;
13386;SDS011;6763;48.524;9.044;2023-04-16T02:05:23;1.80;;;1.45;;
13386;SDS011;6763;48.524;9.044;2023-04-16T02:07:48;1.50;;;1.38;;
13386;SDS011;6763;48.524;9.044;2023-04-16T02:10:13;2.45;;;1.70;;
13386;SDS011;6763;48.524;9.044;2023-04-16T02:12:39;2.35;;;1.63;;
13386;SDS011;6763;48.524;9.044;2023-04-16T02:15:04;1.85;;;1.63;;
13386;SDS011;6763;48.524;9.044;2023-04-16T02:17:30;2.42;;;2.13;;
13386;SDS011;6763;48.524;9.044;2023-04-16T02:19:55;1.95;;;1.67;;
13386;SDS011;6763;48.524;9.044;2023-04-16T02:22:21;1.83;;;1.65;;
13386;SDS011;6763;48.524;9.044;2023-04-16T02:24:46;1.88;;;1.27;;
13386;SDS011;6763;48.524;9.044;2023-04-16T02:27:11;1.95;;;1.58;;
13386;SDS011;6763;48.524;9.044;2023-04-16T02:29:37;2.53;;;1.65;;
13386;SDS011;6763;48.524;9.044;2023-04-16T02:32:02;1.98;;;1.45;;
13386;SDS011;6763;48.524;9.044;2023-04-16T02:34:27;3.63;;;1.75;;
13386;SDS011;6763;48.524;9.044;2023-04-16T02:36:53;2.53;;;1.98;;
13386;SDS011;6763;48.524;9.044;2023-04-16T02:39:19;1.98;;;1.50;;
13386;SDS011;6763;48.524;9.044;2023-04-16T02:41:44;1.15;;;1.05;;
13386;SDS011;6763;48.524;9.044;2023-04-16T02:44:09;1.38;;;1.27;;
13386;SDS011;6763;48.524;9.044;2023-04-16T02:46:35;1.42;;;1.33;;
13386;SDS011;6763;48.524;9.044;2023-04-16T02:49:00;1.67;;;1.20;;
13386;SDS011;6763;48.524;9.044;2023-04-16T02:51:25;2.70;;;1.75;;
13386;SDS011;6763;48.524;9.044;2023-04-16T02:53:51;1.42;;;1.33;;
13386;SDS011;6763;48.524;9.044;2023-04-16T02:56:16;1.20;;;1.10;;
13386;SDS011;6763;48.524;9.044;2023-04-16T02:58:42;1.25;;;1.05;;
13386;SDS011;6763;48.524;9.044;2023-04-16T03:01:07;2.15;;;1.45;;
13386;SDS011;6763;48.524;9.044;2023-04-16T03:03:33;1.30;;;1.20;;
13386;SDS011;6763;48.524;9.044;2023-04-16T03:05:59;1.38;;;1.20;;
13386;SDS011;6763;48.524;9.044;2023-04-16T03:08:24;0.75;;;0.75;;
13386;SDS011;6763;48.524;9.044;2023-04-16T03:10:50;1.33;;;1.00;;
13386;SDS011;6763;48.524;9.044;2023-04-16T03:13:15;1.13;;;1.02;;
13386;SDS011;6763;48.524;9.044;2023-04-16T03:15:46;1.65;;;1.20;;
13386;SDS011;6763;48.524;9.044;2023-04-16T03:18:12;1.48;;;1.25;;
13386;SDS011;6763;48.524;9.044;2023-04-16T03:20:37;2.00;;;1.45;;
13386;SDS011;6763;48.524;9.044;2023-04-16T03:23:03;1.20;;;1.10;;
13386;SDS011;6763;48.524;9.044;2023-04-16T03:25:28;0.90;;;0.90;;
13386;SDS011;6763;48.524;9.044;2023-04-16T03:27:53;1.17;;;0.93;;
13386;SDS011;6763;48.524;9.044;2023-04-16T03:30:18;1.15;;;1.05;;
13386;SDS011;6763;48.524;9.044;2023-04-16T03:32:44;0.93;;;0.93;;
13386;SDS011;6763;48.524;9.044;2023-04-16T03:35:09;0.82;;;0.82;;
13386;SDS011;6763;48.524;9.044;2023-04-16T03:37:35;0.88;;;0.85;;
13386;SDS011;6763;48.524;9.044;2023-04-16T03:40:00;1.00;;;0.90;;
13386;SDS011;6763;48.524;9.044;2023-04-16T03:42:26;1.23;;;1.02;;
13386;SDS011;6763;48.524;9.044;2023-04-16T03:44:51;0.73;;;0.73;;
13386;SDS011;6763;48.524;9.044;2023-04-16T03:47:17;1.27;;;0.90;;
13386;SDS011;6763;48.524;9.044;2023-04-16T03:49:43;1.30;;;0.90;;
13386;SDS011;6763;48.524;9.044;2023-04-16T03:52:09;1.05;;;1.00;;
13386;SDS011;6763;48.524;9.044;2023-04-16T03:54:35;0.88;;;0.88;;
13386;SDS011;6763;48.524;9.044;2023-04-16T03:57:00;1.20;;;0.77;;
13386;SDS011;6763;48.524;9.044;2023-04-16T03:59:26;1.60;;;0.90;;
13386;SDS011;6763;48.524;9.044;2023-04-16T04:01:51;0.75;;;0.70;;
13386;SDS011;6763;48.524;9.044;2023-04-16T04:04:16;1.23;;;1.05;;
13386;SDS011;6763;48.524;9.044;2023-04-16T04:06:43;2.13;;;1.38;;
13386;SDS011;6763;48.524;9.044;2023-04-16T04:09:10;1.95;;;1.40;;
13386;SDS011;6763;48.524;9.044;2023-04-16T04:11:35;1.15;;;1.05;;
13386;SDS011;6763;48.524;9.044;2023-04-16T04:14:00;2.25;;;1.15;;
13386;SDS011;6763;48.524;9.044;2023-04-16T04:16:26;0.77;;;0.77;;
13386;SDS011;6763;48.524;9.044;2023-04-16T04:18:51;1.27;;;1.17;;
13386;SDS011;6763;48.524;9.044;2023-04-16T04:21:16;0.80;;;0.80;;
13386;SDS011;6763;48.524;9.044;2023-04-16T04:23:42;1.60;;;1.35;;
13386;SDS011;6763;48.524;9.044;2023-04-16T04:26:07;1.25;;;1.15;;
13386;SDS011;6763;48.524;9.044;2023-04-16T04:28:33;1.27;;;0.90;;
13386;SDS011;6763;48.524;9.044;2023-04-16T04:30:59;1.33;;;1.20;;
13386;SDS011;6763;48.524;9.044;2023-04-16T04:33:25;2.30;;;1.40;;
13386;SDS011;6763;48.524;9.044;2023-04-16T04:35:51;1.73;;;1.13;;
13386;SDS011;6763;48.524;9.044;2023-04-16T04:38:17;1.50;;;1.20;;
13386;SDS011;6763;48.524;9.044;2023-04-16T04:40:44;1.75;;;1.40;;
13386;SDS011;6763;48.524;9.044;2023-04-16T04:43:10;1.33;;;1.23;;
13386;SDS011;6763;48.524;9.044;2023-04-16T04:45:35;1.83;;;1.40;;
13386;SDS011;6763;48.524;9.044;2023-04-16T04:48:00;1.23;;;1.13;;
13386;SDS011;6763;48.524;9.044;2023-04-16T04:50:26;1.65;;;1.48;;
13386;SDS011;6763;48.524;9.044;2023-04-16T04:52:51;3.20;;;2.00;;
13386;SDS011;6763;48.524;9.044;2023-04-16T04:55:16;2.22;;;1.60;;
13386;SDS011;6763;48.524;9.044;2023-04-16T04:57:42;1.70;;;1.05;;
13386;SDS011;6763;48.524;9.044;2023-04-16T05:00:07;1.30;;;1.20;;
13386;SDS011;6763;48.524;9.044;2023-04-16T05:02:33;2.33;;;1.55;;
13386;SDS011;6763;48.524;9.044;2023-04-16T05:04:58;2.92;;;1.70;;
13386;SDS011;6763;48.524;9.044;2023-04-16T05:07:24;2.22;;;1.42;;
13386;SDS011;6763;48.524;9.044;2023-04-16T05:09:49;1.13;;;1.02;;
13386;SDS011;6763;48.524;9.044;2023-04-16T05:12:15;1.08;;;0.98;;
13386;SDS011;6763;48.524;9.044;2023-04-16T05:14:40;2.70;;;1.52;;
13386;SDS011;6763;48.524;9.044;2023-04-16T05:17:06;1.67;;;1.20;;
13386;SDS011;6763;48.524;9.044;2023-04-16T05:19:32;2.35;;;1.27;;
13386;SDS011;6763;48.524;9.044;2023-04-16T05:21:58;0.85;;;0.85;;
13386;SDS011;6763;48.524;9.044;2023-04-16T05:24:23;1.23;;;1.13;;
13386;SDS011;6763;48.524;9.044;2023-04-16T05:26:49;0.88;;;0.88;;
13386;SDS011;6763;48.524;9.044;2023-04-16T05:29:14;2.08;;;1.00;;
13386;SDS011;6763;48.524;9.044;2023-04-16T05:31:40;1.30;;;1.00;;
13386;SDS011;6763;48.524;9.044;2023-04-16T05:34:05;1.42;;;1.08;;
13386;SDS011;6763;48.524;9.044;2023-04-16T05:36:30;1.67;;;1.17;;
13386;SDS011;6763;48.524;9.044;2023-04-16T05:38:55;1.17;;;1.08;;
13386;SDS011;6763;48.524;9.044;2023-04-16T05:41:21;1.52;;;1.30;;
13386;SDS011;6763;48.524;9.044;2023-04-16T05:43:46;1.27;;;1.17;;
13386;SDS011;6763;48.524;9.044;2023-04-16T05:46:12;1.38;;;0.95;;
13386;SDS011;6763;48.524;9.044;2023-04-16T05:48:37;1.05;;;0.95;;
13386;SDS011;6763;48.524;9.044;2023-04-16T05:51:02;1.15;;;1.05;;
13386;SDS011;6763;48.524;9.044;2023-04-16T05:53:28;1.65;;;1.30;;
13386;SDS011;6763;48.524;9.044;2023-04-16T05:55:53;1.85;;;1.20;;
13386;SDS011;6763;48.524;9.044;2023-04-16T05:58:18;1.27;;;1.15;;
13386;SDS011;6763;48.524;9.044;2023-04-16T06:00:44;1.30;;;1.05;;
13386;SDS011;6763;48.524;9.044;2023-04-16T06:03:09;2.33;;;1.40;;
13386;SDS011;6763;48.524;9.044;2023-04-16T06:05:34;4.18;;;1.35;;
13386;SDS011;6763;48.524;9.044;2023-04-16T06:08:00;3.35;;;2.13;;
13386;SDS011;6763;48.524;9.044;2023-04-16T06:10:25;2.33;;;1.55;;
13386;SDS011;6763;48.524;9.044;2023-04-16T06:12:51;1.88;;;1.50;;
13386;SDS011;6763;48.524;9.044;2023-04-16T06:15:16;3.15;;;1.92;;
13386;SDS011;6763;48.524;9.044;2023-04-16T06:17:41;3.15;;;2.10;;
13386;SDS011;6763;48.524;9.044;2023-04-16T06:20:07;3.28;;;2.22;;
13386;SDS011;6763;48.524;9.044;2023-04-16T06:22:32;3.28;;;2.28;;
13386;SDS011;6763;48.524;9.044;2023-04-16T06:24:58;2.10;;;1.70;;
13386;SDS011;6763;48.524;9.044;2023-04-16T06:27:23;3.15;;;2.30;;
13386;SDS011;6763;48.524;9.044;2023-04-16T06:29:48;3.33;;;2.47;;
13386;SDS011;6763;48.524;9.044;2023-04-16T06:32:14;3.90;;;1.83;;
13386;SDS011;6763;48.524;9.044;2023-04-16T06:34:41;5.05;;;3.08;;
13386;SDS011;6763;48.524;9.044;2023-04-16T06:37:06;3.28;;;2.28;;
13386;SDS011;6763;48.524;9.044;2023-04-16T06:39:31;7.65;;;3.13;;
13386;SDS011;6763;48.524;9.044;2023-04-16T06:41:57;3.35;;;2.10;;
13386;SDS011;6763;48.524;9.044;2023-04-16T06:44:22;4.78;;;3.30;;
13386;SDS011;6763;48.524;9.044;2023-04-16T06:46:47;3.70;;;2.33;;
13386;SDS011;6763;48.524;9.044;2023-04-16T06:49:14;5.15;;;2.95;;
13386;SDS011;6763;48.524;9.044;2023-04-16T06:51:39;4.32;;;2.80;;
13386;SDS011;6763;48.524;9.044;2023-04-16T06:54:05;4.90;;;2.88;;
13386;SDS011;6763;48.524;9.044;2023-04-16T06:56:31;3.67;;;2.50;;
13386;SDS011;6763;48.524;9.044;2023-04-16T06:58:56;5.03;;;3.05;;
13386;SDS011;6763;48.524;9.044;2023-04-16T07:01:22;7.25;;;3.17;;
13386;SDS011;6763;48.524;9.044;2023-04-16T07:03:48;5.07;;;3.08;;
13386;SDS011;6763;48.524;9.044;2023-04-16T07:06:13;3.88;;;3.05;;
13386;SDS011;6763;48.524;9.044;2023-04-16T07:08:39;6.30;;;3.83;;
13386;SDS011;6763;48.524;9.044;2023-04-16T07:11:04;6.20;;;3.92;;
13386;SDS011;6763;48.524;9.044;2023-04-16T07:13:29;4.38;;;2.83;;
13386;SDS011;6763;48.524;9.044;2023-04-16T07:15:55;5.63;;;2.72;;
13386;SDS011;6763;48.524;9.044;2023-04-16T07:18:20;7.20;;;3.65;;
13386;SDS011;6763;48.524;9.044;2023-04-16T07:20:46;7.18;;;4.20;;
13386;SDS011;6763;48.524;9.044;2023-04-16T07:23:11;4.63;;;2.95;;
13386;SDS011;6763;48.524;9.044;2023-04-16T07:25:37;4.57;;;3.72;;
13386;SDS011;6763;48.524;9.044;2023-04-16T07:28:02;4.88;;;3.55;;
13386;SDS011;6763;48.524;9.044;2023-04-16T07:30:28;5.95;;;3.40;;
13386;SDS011;6763;48.524;9.044;2023-04-16T07:32:58;7.57;;;4.30;;
13386;SDS011;6763;48.524;9.044;2023-04-16T07:35:24;5.85;;;3.88;;
13386;SDS011;6763;48.524;9.044;2023-04-16T07:37:49;5.15;;;3.78;;
13386;SDS011;6763;48.524;9.044;2023-04-16T07:40:15;7.22;;;4.45;;
13386;SDS011;6763;48.524;9.044;2023-04-16T07:42:40;8.23;;;4.75;;
13386;SDS011;6763;48.524;9.044;2023-04-16T07:45:05;5.95;;;4.13;;
13386;SDS011;6763;48.524;9.044;2023-04-16T07:47:31;7.90;;;4.70;;
13386;SDS011;6763;48.524;9.044;2023-04-16T07:49:56;7.60;;;4.05;;
13386;SDS011;6763;48.524;9.044;2023-04-16T07:52:22;6.55;;;4.18;;
13386;SDS011;6763;48.524;9.044;2023-04-16T07:54:47;9.80;;;4.10;;
13386;SDS011;6763;48.524;9.044;2023-04-16T07:57:12;8.88;;;3.58;;
13386;SDS011;6763;48.524;9.044;2023-04-16T07:59:38;9.75;;;4.28;;
13386;SDS011;6763;48.524;9.044;2023-04-16T08:02:03;6.30;;;4.13;;
13386;SDS011;6763;48.524;9.044;2023-04-16T08:04:30;6.82;;;3.63;;
13386;SDS011;6763;48.524;9.044;2023-04-16T08:06:55;5.55;;;3.30;;
13386;SDS011;6763;48.524;9.044;2023-04-16T08:09:21;4.80;;;3.33;;
13386;SDS011;6763;48.524;9.044;2023-04-16T08:11:47;6.88;;;4.60;;
13386;SDS011;6763;48.524;9.044;2023-04-16T08:14:14;5.93;;;3.55;;
13386;SDS011;6763;48.524;9.044;2023-04-16T08:16:40;8.02;;;4.55;;
13386;SDS011;6763;48.524;9.044;2023-04-16T08:19:05;6.82;;;4.03;;
13386;SDS011;6763;48.524;9.044;2023-04-16T08:21:31;6.18;;;4.53;;
13386;SDS011;6763;48.524;9.044;2023-04-16T08:23:57;5.32;;;4.00;;
13386;SDS011;6763;48.524;9.044;2023-04-16T08:26:22;3.90;;;2.63;;
13386;SDS011;6763;48.524;9.044;2023-04-16T08:28:47;5.03;;;3.75;;
13386;SDS011;6763;48.524;9.044;2023-04-16T08:31:13;3.25;;;2.88;;
13386;SDS011;6763;48.524;9.044;2023-04-16T08:33:39;7.20;;;4.22;;
13386;SDS011;6763;48.524;9.044;2023-04-16T08:36:04;5.55;;;3.28;;
13386;SDS011;6763;48.524;9.044;2023-04-16T08:38:30;5.13;;;3.72;;
13386;SDS011;6763;48.524;9.044;2023-04-16T08:40:55;4.72;;;3.35;;
13386;SDS011;6763;48.524;9.044;2023-04-16T08:43:25;5.20;;;3.45;;
13386;SDS011;6763;48.524;9.044;2023-04-16T08:45:51;8.15;;;3.55;;
13386;SDS011;6763;48.524;9.044;2023-04-16T08:48:20;4.40;;;3.17;;
13386;SDS011;6763;48.524;9.044;2023-04-16T08:50:47;7.45;;;3.67;;
13386;SDS011;6763;48.524;9.044;2023-04-16T08:53:17;5.78;;;3.42;;
13386;SDS011;6763;48.524;9.044;2023-04-16T08:55:49;6.22;;;4.35;;
13386;SDS011;6763;48.524;9.044;2023-04-16T08:58:20;5.15;;;3.90;;
13386;SDS011;6763;48.524;9.044;2023-04-16T09:00:47;5.07;;;3.33;;
13386;SDS011;6763;48.524;9.044;2023-04-16T09:03:13;4.93;;;3.00;;
13386;SDS011;6763;48.524;9.044;2023-04-16T09:05:38;3.83;;;2.83;;
13386;SDS011;6763;48.524;9.044;2023-04-16T09:08:04;4.20;;;3.08;;
13386;SDS011;6763;48.524;9.044;2023-04-16T09:10:30;5.38;;;3.38;;
13386;SDS011;6763;48.524;9.044;2023-04-16T09:12:56;5.65;;;3.28;;
13386;SDS011;6763;48.524;9.044;2023-04-16T09:15:22;4.32;;;3.17;;
13386;SDS011;6763;48.524;9.044;2023-04-16T09:17:49;5.70;;;3.50;;
13386;SDS011;6763;48.524;9.044;2023-04-16T09:20:14;7.30;;;3.78;;
13386;SDS011;6763;48.524;9.044;2023-04-16T09:22:40;4.88;;;3.38;;
13386;SDS011;6763;48.524;9.044;2023-04-16T09:25:06;5.25;;;3.47;;
13386;SDS011;6763;48.524;9.044;2023-04-16T09:27:31;5.93;;;3.38;;
13386;SDS011;6763;48.524;9.044;2023-04-16T09:29:57;5.55;;;3.60;;
13386;SDS011;6763;48.524;9.044;2023-04-16T09:32:23;7.05;;;4.22;;
13386;SDS011;6763;48.524;9.044;2023-04-16T09:35:00;4.90;;;3.33;;
13386;SDS011;6763;48.524;9.044;2023-04-16T09:37:29;6.30;;;3.95;;
13386;SDS011;6763;48.524;9.044;2023-04-16T09:39:56;4.60;;;3.10;;
13386;SDS011;6763;48.524;9.044;2023-04-16T09:42:23;6.07;;;3.70;;
13386;SDS011;6763;48.524;9.044;2023-04-16T09:44:51;5.95;;;3.40;;
13386;SDS011;6763;48.524;9.044;2023-04-16T09:47:17;5.03;;;3.22;;
13386;SDS011;6763;48.524;9.044;2023-04-16T09:49:42;5.88;;;2.88;;
13386;SDS011;6763;48.524;9.044;2023-04-16T09:52:12;7.68;;;2.90;;
13386;SDS011;6763;48.524;9.044;2023-04-16T09:54:48;3.55;;;2.85;;
13386;SDS011;6763;48.524;9.044;2023-04-16T09:57:21;4.13;;;2.88;;
13386;SDS011;6763;48.524;9.044;2023-04-16T09:59:52;4.05;;;2.72;;
13386;SDS011;6763;48.524;9.044;2023-04-16T10:02:18;4.03;;;2.92;;
13386;SDS011;6763;48.524;9.044;2023-04-16T10:04:45;4.15;;;2.55;;
13386;SDS011;6763;48.524;9.044;2023-04-16T10:07:14;4.53;;;3.10;;
13386;SDS011;6763;48.524;9.044;2023-04-16T10:09:40;5.70;;;3.25;;
13386;SDS011;6763;48.524;9.044;2023-04-16T10:12:06;5.60;;;3.40;;
13386;SDS011;6763;48.524;9.044;2023-04-16T10:14:31;4.38;;;3.17;;
13386;SDS011;6763;48.524;9.044;2023-04-16T10:17:00;6.75;;;3.63;;
13386;SDS011;6763;48.524;9.044;2023-04-16T10:19:27;5.50;;;3.42;;
13386;SDS011;6763;48.524;9.044;2023-04-16T10:21:53;4.47;;;3.15;;
13386;SDS011;6763;48.524;9.044;2023-04-16T10:24:19;3.97;;;3.30;;
13386;SDS011;6763;48.524;9.044;2023-04-16T10:26:45;5.75;;;3.28;;
13386;SDS011;6763;48.524;9.044;2023-04-16T10:29:12;5.10;;;3.38;;
13386;SDS011;6763;48.524;9.044;2023-04-16T10:31:37;4.55;;;3.17;;
13386;SDS011;6763;48.524;9.044;2023-04-16T10:34:05;6.35;;;3.70;;
13386;SDS011;6763;48.524;9.044;2023-04-16T10:36:35;6.55;;;3.67;;
13386;SDS011;6763;48.524;9.044;2023-04-16T10:39:01;8.77;;;4.13;;
13386;SDS011;6763;48.524;9.044;2023-04-16T10:41:27;8.18;;;4.30;;
13386;SDS011;6763;48.524;9.044;2023-04-16T10:44:02;7.50;;;3.70;;
13386;SDS011;6763;48.524;9.044;2023-04-16T10:46:37;6.00;;;3.83;;
13386;SDS011;6763;48.524;9.044;2023-04-16T10:51:39;6.45;;;4.15;;
13386;SDS011;6763;48.524;9.044;2023-04-16T10:56:38;6.07;;;3.60;;
13386;SDS011;6763;48.524;9.044;2023-04-16T10:59:04;5.80;;;3.58;;
13386;SDS011;6763;48.524;9.044;2023-04-16T11:01:32;4.50;;;3.28;;
13386;SDS011;6763;48.524;9.044;2023-04-16T11:04:00;8.00;;;3.53;;
13386;SDS011;6763;48.524;9.044;2023-04-16T11:06:41;5.68;;;3.40;;
13386;SDS011;6763;48.524;9.044;2023-04-16T11:09:43;5.70;;;3.42;;
13386;SDS011;6763;48.524;9.044;2023-04-16T11:12:13;5.95;;;3.67;;
13386;SDS011;6763;48.524;9.044;2023-04-16T11:14:40;6.28;;;3.67;;
13386;SDS011;6763;48.524;9.044;2023-04-16T11:17:06;10.80;;;3.72;;
13386;SDS011;6763;48.524;9.044;2023-04-16T11:19:31;5.03;;;3.55;;
13386;SDS011;6763;48.524;9.044;2023-04-16T11:21:57;5.85;;;3.42;;
13386;SDS011;6763;48.524;9.044;2023-04-16T11:24:23;5.30;;;3.50;;
13386;SDS011;6763;48.524;9.044;2023-04-16T11:26:51;5.75;;;3.50;;
13386;SDS011;6763;48.524;9.044;2023-04-16T11:29:17;6.18;;;3.45;;
13386;SDS011;6763;48.524;9.044;2023-04-16T11:31:48;4.80;;;3.53;;
13386;SDS011;6763;48.524;9.044;2023-04-16T11:34:15;5.18;;;3.38;;
13386;SDS011;6763;48.524;9.044;2023-04-16T11:36:45;5.25;;;3.67;;
13386;SDS011;6763;48.524;9.044;2023-04-16T11:39:12;7.78;;;3.60;;
13386;SDS011;6763;48.524;9.044;2023-04-16T11:41:46;5.03;;;2.75;;
13386;SDS011;6763;48.524;9.044;2023-04-16T11:44:25;3.58;;;2.78;;
13386;SDS011;6763;48.524;9.044;2023-04-16T11:46:52;7.40;;;3.13;;
13386;SDS011;6763;48.524;9.044;2023-04-16T11:49:30;4.50;;;2.83;;
13386;SDS011;6763;48.524;9.044;2023-04-16T11:51:56;5.40;;;3.80;;
13386;SDS011;6763;48.524;9.044;2023-04-16T11:54:23;6.45;;;3.28;;
13386;SDS011;6763;48.524;9.044;2023-04-16T11:56:49;3.13;;;2.75;;
13386;SDS011;6763;48.524;9.044;2023-04-16T12:01:47;4.60;;;2.97;;
13386;SDS011;6763;48.524;9.044;2023-04-16T12:04:14;3.85;;;2.53;;
13386;SDS011;6763;48.524;9.044;2023-04-16T12:09:32;4.63;;;2.90;;
13386;SDS011;6763;48.524;9.044;2023-04-16T12:12:01;2.95;;;2.60;;
13386;SDS011;6763;48.524;9.044;2023-04-16T12:14:27;3.17;;;2.53;;
13386;SDS011;6763;48.524;9.044;2023-04-16T12:16:53;4.15;;;2.95;;
13386;SDS011;6763;48.524;9.044;2023-04-16T12:19:18;3.55;;;2.65;;
13386;SDS011;6763;48.524;9.044;2023-04-16T12:21:45;5.03;;;3.03;;
13386;SDS011;6763;48.524;9.044;2023-04-16T12:24:12;2.45;;;1.95;;
13386;SDS011;6763;48.524;9.044;2023-04-16T12:29:27;2.80;;;2.30;;
13386;SDS011;6763;48.524;9.044;2023-04-16T12:31:52;2.60;;;2.13;;
13386;SDS011;6763;48.524;9.044;2023-04-16T12:34:19;4.50;;;2.55;;
13386;SDS011;6763;48.524;9.044;2023-04-16T12:36:45;2.55;;;2.08;;
13386;SDS011;6763;48.524;9.044;2023-04-16T12:39:12;2.75;;;2.35;;
13386;SDS011;6763;48.524;9.044;2023-04-16T12:41:39;3.70;;;2.42;;
13386;SDS011;6763;48.524;9.044;2023-04-16T12:44:07;6.70;;;3.22;;
13386;SDS011;6763;48.524;9.044;2023-04-16T12:46:35;4.30;;;2.88;;
13386;SDS011;6763;48.524;9.044;2023-04-16T12:49:01;3.75;;;2.58;;
13386;SDS011;6763;48.524;9.044;2023-04-16T12:51:27;4.47;;;2.58;;
13386;SDS011;6763;48.524;9.044;2023-04-16T12:53:54;3.05;;;2.17;;
13386;SDS011;6763;48.524;9.044;2023-04-16T12:56:19;2.85;;;2.38;;
13386;SDS011;6763;48.524;9.044;2023-04-16T12:58:45;3.40;;;2.20;;
13386;SDS011;6763;48.524;9.044;2023-04-16T13:01:10;2.85;;;2.45;;
13386;SDS011;6763;48.524;9.044;2023-04-16T13:03:36;3.22;;;2.58;;
13386;SDS011;6763;48.524;9.044;2023-04-16T13:06:02;3.53;;;2.25;;
13386;SDS011;6763;48.524;9.044;2023-04-16T13:08:28;2.72;;;1.92;;
13386;SDS011;6763;48.524;9.044;2023-04-16T13:10:55;10.15;;;6.22;;
13386;SDS011;6763;48.524;9.044;2023-04-16T13:13:20;2.80;;;2.38;;
13386;SDS011;6763;48.524;9.044;2023-04-16T13:15:46;2.22;;;2.00;;
13386;SDS011;6763;48.524;9.044;2023-04-16T13:18:11;3.13;;;2.35;;
13386;SDS011;6763;48.524;9.044;2023-04-16T13:20:36;2.10;;;1.73;;
13386;SDS011;6763;48.524;9.044;2023-04-16T13:23:02;3.70;;;2.30;;
13386;SDS011;6763;48.524;9.044;2023-04-16T13:25:29;2.40;;;1.88;;
13386;SDS011;6763;48.524;9.044;2023-04-16T13:27:55;2.25;;;1.73;;
13386;SDS011;6763;48.524;9.044;2023-04-16T13:30:20;4.95;;;2.35;;
13386;SDS011;6763;48.524;9.044;2023-04-16T13:32:45;2.55;;;2.22;;
13386;SDS011;6763;48.524;9.044;2023-04-16T13:35:11;2.58;;;2.35;;
13386;SDS011;6763;48.524;9.044;2023-04-16T13:37:36;2.78;;;2.17;;
13386;SDS011;6763;48.524;9.044;2023-04-16T13:40:02;3.08;;;1.75;;
13386;SDS011;6763;48.524;9.044;2023-04-16T13:42:27;3.00;;;1.75;;
13386;SDS011;6763;48.524;9.044;2023-04-16T13:44:53;2.30;;;1.60;;
13386;SDS011;6763;48.524;9.044;2023-04-16T13:47:19;1.83;;;1.45;;
13386;SDS011;6763;48.524;9.044;2023-04-16T13:49:44;1.60;;;1.50;;
13386;SDS011;6763;48.524;9.044;2023-04-16T13:52:10;2.28;;;1.50;;
13386;SDS011;6763;48.524;9.044;2023-04-16T13:54:35;1.55;;;1.45;;
13386;SDS011;6763;48.524;9.044;2023-04-16T13:57:01;1.63;;;1.20;;
13386;SDS011;6763;48.524;9.044;2023-04-16T13:59:26;1.55;;;1.45;;
13386;SDS011;6763;48.524;9.044;2023-04-16T14:01:51;1.20;;;1.10;;
13386;SDS011;6763;48.524;9.044;2023-04-16T14:04:17;1.20;;;1.10;;
13386;SDS011;6763;48.524;9.044;2023-04-16T14:06:42;1.13;;;1.02;;
13386;SDS011;6763;48.524;9.044;2023-04-16T14:09:07;1.88;;;1.10;;
13386;SDS011;6763;48.524;9.044;2023-04-16T14:11:34;1.05;;;0.93;;
13386;SDS011;6763;48.524;9.044;2023-04-16T14:14:00;1.13;;;0.90;;
13386;SDS011;6763;48.524;9.044;2023-04-16T14:16:26;1.17;;;1.08;;
13386;SDS011;6763;48.524;9.044;2023-04-16T14:18:51;0.80;;;0.80;;
13386;SDS011;6763;48.524;9.044;2023-04-16T14:21:17;0.73;;;0.73;;
13386;SDS011;6763;48.524;9.044;2023-04-16T14:23:42;1.15;;;1.08;;
13386;SDS011;6763;48.524;9.044;2023-04-16T14:26:08;0.68;;;0.68;;
13386;SDS011;6763;48.524;9.044;2023-04-16T14:28:33;1.63;;;1.08;;
13386;SDS011;6763;48.524;9.044;2023-04-16T14:30:59;6.63;;;0.80;;
13386;SDS011;6763;48.524;9.044;2023-04-16T14:33:25;1.73;;;1.20;;
13386;SDS011;6763;48.524;9.044;2023-04-16T14:35:51;1.90;;;0.90;;
13386;SDS011;6763;48.524;9.044;2023-04-16T14:38:17;0.70;;;0.70;;
13386;SDS011;6763;48.524;9.044;2023-04-16T14:40:42;0.90;;;0.90;;
13386;SDS011;6763;48.524;9.044;2023-04-16T14:43:07;0.80;;;0.80;;
13386;SDS011;6763;48.524;9.044;2023-04-16T14:45:33;0.93;;;0.85;;
13386;SDS011;6763;48.524;9.044;2023-04-16T14:47:58;1.17;;;1.08;;
13386;SDS011;6763;48.524;9.044;2023-04-16T14:50:23;0.93;;;0.88;;
13386;SDS011;6763;48.524;9.044;2023-04-16T14:52:50;1.38;;;1.08;;
13386;SDS011;6763;48.524;9.044;2023-04-16T14:55:17;1.08;;;0.98;;
13386;SDS011;6763;48.524;9.044;2023-04-16T14:57:42;0.98;;;0.95;;
13386;SDS011;6763;48.524;9.044;2023-04-16T15:00:08;2.33;;;1.83;;
13386;SDS011;6763;48.524;9.044;2023-04-16T15:02:34;1.50;;;1.15;;
13386;SDS011;6763;48.524;9.044;2023-04-16T15:05:00;4.70;;;2.67;;
13386;SDS011;6763;48.524;9.044;2023-04-16T15:07:26;6.70;;;3.90;;